Time;durP1;ratioP1;P1;durP2;ratioP2;P2;SDS_P1;SDS_P2;PMS_P1;PMS_P2;Temp;Humidity;BMP_temperature;BMP_pressure;BME280_temperature;BME280_humidity;BME280_pressure;Samples;Min_cycle;Max_cycle;Signal;HPM_P1;HPM_P2
2023/09/21 00:01:43;;;;;;;7.30;3.10;;;19.10;99.90;;;;;;5012206;28;20192;-70
2023/09/21 00:04:09;;;;;;;3.90;2.53;;;19.00;99.90;;;;;;5013361;28;20917;-70
2023/09/21 00:06:36;;;;;;;2.60;2.30;;;19.00;99.90;;;;;;5013555;28;20394;-70
2023/09/21 00:09:02;;;;;;;2.43;2.13;;;19.00;99.90;;;;;;5013483;28;20430;-70
2023/09/21 00:11:28;;;;;;;2.70;2.40;;;18.80;99.90;;;;;;5013414;28;20498;-69
2023/09/21 00:13:53;;;;;;;3.03;2.53;;;18.70;99.90;;;;;;5013182;28;20482;-69
2023/09/21 00:16:20;;;;;;;3.40;3.10;;;18.70;99.90;;;;;;5013211;28;20259;-70
2023/09/21 00:18:46;;;;;;;2.87;2.60;;;18.60;99.90;;;;;;5013324;28;20188;-70
2023/09/21 00:21:14;;;;;;;2.43;2.23;;;18.60;99.90;;;;;;5017062;28;20437;-70
2023/09/21 00:23:40;;;;;;;3.73;2.53;;;18.60;99.90;;;;;;5017146;28;20414;-70
2023/09/21 00:26:07;;;;;;;3.77;2.83;;;18.70;99.90;;;;;;5015942;28;20929;-70
2023/09/21 00:28:32;;;;;;;3.70;2.97;;;18.70;99.90;;;;;;5017088;28;20510;-70
2023/09/21 00:30:59;;;;;;;2.47;2.27;;;18.70;99.90;;;;;;5017119;28;20431;-71
2023/09/21 00:33:29;;;;;;;3.77;2.43;;;18.80;99.90;;;;;;5017159;28;20164;-70
2023/09/21 00:35:59;;;;;;;2.60;2.40;;;18.70;99.90;;;;;;5017041;28;20913;-70
2023/09/21 00:38:26;;;;;;;2.70;2.50;;;18.70;99.90;;;;;;5017595;28;20427;-70
2023/09/21 00:41:00;;;;;;;2.70;2.50;;;18.60;99.90;;;;;;5017153;28;20494;-70
2023/09/21 00:43:27;;;;;;;3.20;2.60;;;18.70;99.90;;;;;;5015634;28;21061;-70
2023/09/21 00:45:54;;;;;;;3.10;2.77;;;18.70;99.90;;;;;;5017113;28;20427;-70
2023/09/21 00:48:25;;;;;;;3.10;2.33;;;18.80;99.90;;;;;;5016823;28;20477;-70
2023/09/21 00:50:53;;;;;;;3.00;2.63;;;18.80;99.90;;;;;;5017001;28;20429;-70
2023/09/21 00:53:20;;;;;;;3.30;2.20;;;18.80;99.90;;;;;;5016776;28;20497;-71
2023/09/21 00:55:52;;;;;;;2.90;2.50;;;18.70;99.90;;;;;;5016726;28;20403;-71
2023/09/21 00:58:22;;;;;;;2.77;2.53;;;18.60;99.90;;;;;;5015187;28;20476;-71
2023/09/21 01:00:49;;;;;;;3.63;2.60;;;18.70;99.90;;;;;;5016377;28;20493;-70
2023/09/21 01:03:16;;;;;;;2.60;2.40;;;18.70;99.90;;;;;;5015153;28;20623;-70
2023/09/21 01:05:45;;;;;;;2.73;2.40;;;18.60;99.90;;;;;;5016582;28;20395;-70
2023/09/21 01:08:18;;;;;;;8.93;2.30;;;18.40;99.90;;;;;;5015378;28;20438;-70
2023/09/21 01:10:49;;;;;;;3.07;2.57;;;18.40;99.90;;;;;;5016468;28;20406;-70
2023/09/21 01:13:18;;;;;;;2.70;2.27;;;18.50;99.90;;;;;;5016681;28;20406;-71
2023/09/21 01:15:59;;;;;;;3.50;2.77;;;18.40;99.90;;;;;;5015581;28;20415;-70
2023/09/21 01:18:25;;;;;;;2.80;2.50;;;18.40;99.90;;;;;;5016472;28;20513;-70
2023/09/21 01:20:55;;;;;;;2.53;2.33;;;18.40;99.90;;;;;;5016724;28;20500;-70
2023/09/21 01:23:24;;;;;;;3.50;2.67;;;18.40;99.90;;;;;;5016374;28;20188;-69
2023/09/21 01:25:50;;;;;;;3.50;2.70;;;18.40;99.90;;;;;;5015190;28;20783;-70
2023/09/21 01:28:22;;;;;;;2.30;2.00;;;18.40;99.90;;;;;;5016206;28;20497;-70
2023/09/21 01:30:51;;;;;;;3.20;2.20;;;18.50;99.90;;;;;;5014548;28;20407;-70
2023/09/21 01:33:17;;;;;;;3.70;2.80;;;18.50;99.90;;;;;;5016211;28;20414;-70
2023/09/21 01:35:43;;;;;;;3.90;2.80;;;18.60;99.90;;;;;;5016025;28;20407;-70
2023/09/21 01:38:10;;;;;;;2.23;2.03;;;18.60;99.90;;;;;;5016024;28;20192;-70
2023/09/21 01:40:36;;;;;;;2.83;2.53;;;18.70;99.90;;;;;;5015843;28;20457;-70
2023/09/21 01:43:08;;;;;;;2.83;2.60;;;18.70;99.90;;;;;;5016001;28;20961;-70
2023/09/21 01:45:39;;;;;;;2.60;2.40;;;18.50;99.90;;;;;;5015903;28;20440;-70
2023/09/21 01:48:09;;;;;;;3.07;2.73;;;18.50;99.90;;;;;;5015846;28;20554;-70
2023/09/21 01:50:49;;;;;;;2.50;2.30;;;18.50;99.90;;;;;;5014487;28;20410;-70
2023/09/21 01:53:19;;;;;;;2.37;2.00;;;18.40;99.90;;;;;;5014510;28;20438;-70
2023/09/21 01:55:47;;;;;;;2.67;2.47;;;18.40;99.90;;;;;;5015873;28;20454;-70
2023/09/21 01:58:14;;;;;;;3.97;2.60;;;18.50;99.90;;;;;;5015635;28;20454;-71
2023/09/21 02:00:41;;;;;;;3.00;2.30;;;18.60;99.90;;;;;;5015435;28;20948;-70
2023/09/21 02:03:12;;;;;;;3.50;2.40;;;18.60;99.90;;;;;;5015716;28;20442;-70
2023/09/21 02:05:39;;;;;;;2.50;2.27;;;18.70;99.90;;;;;;5015808;28;20478;-70
2023/09/21 02:08:07;;;;;;;2.53;2.23;;;18.70;99.90;;;;;;5015354;28;20427;-70
2023/09/21 02:10:33;;;;;;;2.90;2.40;;;18.70;99.90;;;;;;5017223;28;20445;-70
2023/09/21 02:13:00;;;;;;;2.77;2.57;;;18.70;99.90;;;;;;5016653;28;20410;-70
2023/09/21 02:15:27;;;;;;;3.20;2.90;;;18.80;99.90;;;;;;5015219;28;20482;-70
2023/09/21 02:17:56;;;;;;;2.60;2.40;;;18.70;99.90;;;;;;5015517;28;20852;-70
2023/09/21 02:20:27;;;;;;;3.27;2.67;;;18.70;99.90;;;;;;5013953;28;20895;-70
2023/09/21 02:22:57;;;;;;;2.40;2.20;;;18.70;99.90;;;;;;5015291;28;20809;-70
2023/09/21 02:25:24;;;;;;;4.03;3.00;;;18.70;99.90;;;;;;5015296;28;20477;-70
2023/09/21 02:27:49;;;;;;;4.03;2.70;;;18.50;99.90;;;;;;5014812;28;20421;-70
2023/09/21 02:30:17;;;;;;;3.63;2.53;;;18.50;99.90;;;;;;5015125;28;20435;-71
2023/09/21 02:32:50;;;;;;;3.53;2.50;;;18.60;99.90;;;;;;5014937;28;20172;-70
2023/09/21 02:35:19;;;;;;;2.40;2.20;;;18.70;99.90;;;;;;5015025;28;20449;-70
2023/09/21 02:37:46;;;;;;;2.83;2.50;;;18.60;99.90;;;;;;5014840;28;20427;-70
2023/09/21 02:40:19;;;;;;;2.50;2.30;;;18.60;99.90;;;;;;5015752;28;20944;-70
2023/09/21 02:42:52;;;;;;;3.23;2.70;;;18.70;99.90;;;;;;5014143;28;20486;-70
2023/09/21 02:45:26;;;;;;;2.80;2.50;;;18.70;99.90;;;;;;5014971;28;20454;-70
2023/09/21 02:48:00;;;;;;;3.23;2.40;;;18.70;99.90;;;;;;5014008;28;20548;-70
2023/09/21 02:50:27;;;;;;;4.53;1.90;;;18.70;99.90;;;;;;5015177;28;20380;-70
2023/09/21 02:53:06;;;;;;;2.50;2.20;;;18.90;99.90;;;;;;5014403;28;20399;-71
2023/09/21 02:55:34;;;;;;;2.10;1.90;;;18.90;99.90;;;;;;5014585;28;20437;-70
2023/09/21 02:58:10;;;;;;;3.70;2.10;;;18.80;99.90;;;;;;5015227;28;20511;-70
2023/09/21 03:00:42;;;;;;;3.03;2.73;;;18.80;99.90;;;;;;5014782;28;20391;-70
2023/09/21 03:03:13;;;;;;;2.47;1.97;;;18.80;99.90;;;;;;5014624;28;20443;-70
2023/09/21 03:05:46;;;;;;;2.97;2.27;;;18.80;99.90;;;;;;5014410;28;20391;-70
2023/09/21 03:08:14;;;;;;;3.23;2.90;;;18.90;99.90;;;;;;5014583;28;20830;-70
2023/09/21 03:10:49;;;;;;;3.67;2.77;;;18.90;99.90;;;;;;5014453;28;20414;-71
2023/09/21 03:13:19;;;;;;;3.83;2.27;;;19.00;99.90;;;;;;5014539;28;20438;-70
2023/09/21 03:15:50;;;;;;;3.30;2.47;;;19.00;99.90;;;;;;5013299;28;20413;-70
2023/09/21 03:18:16;;;;;;;2.53;1.93;;;19.10;99.90;;;;;;5015179;28;20438;-70
2023/09/21 03:20:43;;;;;;;2.70;2.20;;;19.10;99.90;;;;;;5015335;28;20846;-70
2023/09/21 03:23:10;;;;;;;4.97;2.60;;;19.20;99.90;;;;;;5015673;28;20953;-70
2023/09/21 03:25:43;;;;;;;2.70;2.50;;;19.30;99.90;;;;;;5015858;28;20403;-70
2023/09/21 03:28:13;;;;;;;2.80;2.57;;;19.20;99.90;;;;;;5015663;28;20430;-70
2023/09/21 03:30:41;;;;;;;2.90;2.33;;;19.10;99.90;;;;;;5015243;28;20464;-70
2023/09/21 03:33:07;;;;;;;3.03;2.60;;;19.10;99.90;;;;;;5016445;28;20415;-70
2023/09/21 03:35:33;;;;;;;3.10;2.70;;;19.10;99.90;;;;;;5030133;28;20528;-70
2023/09/21 03:37:59;;;;;;;3.40;2.33;;;19.10;99.90;;;;;;5033137;28;20423;-70
2023/09/21 03:40:25;;;;;;;2.23;2.03;;;19.10;99.90;;;;;;5034795;28;20186;-70
2023/09/21 03:42:55;;;;;;;3.77;2.67;;;19.20;99.90;;;;;;5033754;28;20463;-70
2023/09/21 03:45:24;;;;;;;2.60;2.27;;;19.20;99.90;;;;;;5032955;28;20160;-70
2023/09/21 03:47:52;;;;;;;2.93;2.53;;;19.20;99.90;;;;;;5032878;28;20474;-70
2023/09/21 03:50:19;;;;;;;4.57;2.70;;;19.20;99.90;;;;;;5031599;28;20411;-69
2023/09/21 03:52:44;;;;;;;2.73;2.43;;;19.20;99.90;;;;;;5030182;28;20413;-70
2023/09/21 03:55:13;;;;;;;3.67;2.63;;;19.20;99.90;;;;;;5026932;28;20407;-70
2023/09/21 03:57:38;;;;;;;2.63;2.43;;;19.20;99.90;;;;;;5022495;28;20250;-70
2023/09/21 04:00:21;;;;;;;3.50;2.23;;;19.10;99.90;;;;;;5018162;28;20403;-70
2023/09/21 04:02:47;;;;;;;3.23;2.73;;;19.10;99.90;;;;;;5016943;28;20191;-70
2023/09/21 04:05:14;;;;;;;4.40;2.40;;;19.10;99.90;;;;;;5014992;28;20399;-70
2023/09/21 04:07:40;;;;;;;7.90;2.23;;;19.20;99.90;;;;;;5013911;28;20199;-70
2023/09/21 04:10:06;;;;;;;3.30;2.70;;;19.20;99.90;;;;;;5013867;28;20933;-70
2023/09/21 04:12:32;;;;;;;5.50;2.70;;;19.10;99.90;;;;;;5013829;28;20260;-70
2023/09/21 04:14:57;;;;;;;2.70;2.50;;;19.10;99.90;;;;;;5012445;28;20479;-70
2023/09/21 04:17:26;;;;;;;2.70;2.20;;;19.20;99.90;;;;;;5013613;28;20184;-70
2023/09/21 04:19:52;;;;;;;2.87;2.57;;;19.20;99.90;;;;;;5013957;28;20705;-70
2023/09/21 04:22:18;;;;;;;2.73;2.37;;;19.20;99.90;;;;;;5013894;28;20455;-72
2023/09/21 04:24:44;;;;;;;4.40;2.50;;;19.20;99.90;;;;;;5014157;28;20478;-70
2023/09/21 04:27:09;;;;;;;4.37;2.50;;;19.20;99.90;;;;;;5014027;28;20656;-70
2023/09/21 04:29:35;;;;;;;3.23;2.63;;;19.20;99.90;;;;;;5013963;28;20537;-69
2023/09/21 04:32:00;;;;;;;2.73;2.53;;;19.20;99.90;;;;;;5014998;28;20172;-70
2023/09/21 04:34:26;;;;;;;2.90;2.30;;;19.10;99.90;;;;;;5013182;28;20547;-70
2023/09/21 04:36:52;;;;;;;3.00;2.67;;;19.10;99.90;;;;;;5013638;28;20723;-70
2023/09/21 04:39:17;;;;;;;4.50;2.33;;;18.90;99.90;;;;;;5014768;28;20192;-70
2023/09/21 04:41:44;;;;;;;2.90;2.47;;;19.00;99.90;;;;;;5009241;28;20732;-69
2023/09/21 04:44:09;;;;;;;4.47;3.00;;;19.10;99.90;;;;;;5005766;28;20182;-69
2023/09/21 04:46:38;;;;;;;2.73;2.47;;;19.10;99.90;;;;;;5006597;28;20410;-71
2023/09/21 04:49:03;;;;;;;2.70;2.50;;;19.20;99.90;;;;;;5014286;28;20200;-71
2023/09/21 04:51:29;;;;;;;2.80;2.40;;;19.30;99.90;;;;;;5012514;28;20461;-70
2023/09/21 04:53:54;;;;;;;3.10;2.30;;;19.30;99.90;;;;;;5013117;28;20172;-69
2023/09/21 04:56:20;;;;;;;3.00;2.57;;;19.20;99.90;;;;;;5013809;28;20168;-69
2023/09/21 04:58:46;;;;;;;3.20;2.60;;;19.20;99.90;;;;;;5013299;28;20188;-69
2023/09/21 05:01:12;;;;;;;3.83;2.83;;;19.10;99.90;;;;;;5012376;28;20179;-69
2023/09/21 05:03:37;;;;;;;3.10;2.80;;;19.10;99.90;;;;;;4999999;28;20533;-69
2023/09/21 05:06:04;;;;;;;3.00;2.70;;;19.00;99.90;;;;;;5014461;28;20171;-69
2023/09/21 05:08:36;;;;;;;3.10;2.47;;;18.80;99.90;;;;;;5016258;28;20187;-69
2023/09/21 05:11:03;;;;;;;3.17;2.87;;;19.00;99.90;;;;;;5016241;28;20395;-69
2023/09/21 05:13:29;;;;;;;3.17;2.80;;;19.20;99.90;;;;;;5016112;28;20422;-69
2023/09/21 05:15:54;;;;;;;3.13;2.60;;;19.30;99.90;;;;;;5016298;28;20897;-69
2023/09/21 05:18:20;;;;;;;3.20;2.70;;;19.40;99.90;;;;;;5016602;28;20291;-69
2023/09/21 05:20:45;;;;;;;3.27;2.40;;;19.50;99.90;;;;;;5016623;28;20566;-69
2023/09/21 05:23:11;;;;;;;3.30;3.00;;;19.60;99.90;;;;;;5016023;28;20198;-69
2023/09/21 05:25:37;;;;;;;3.53;2.70;;;19.60;99.90;;;;;;5016551;28;20172;-69
2023/09/21 05:28:03;;;;;;;4.63;2.83;;;19.60;99.90;;;;;;5016138;28;20196;-69
2023/09/21 05:30:29;;;;;;;3.80;2.40;;;19.60;99.90;;;;;;5015948;28;20564;-70
2023/09/21 05:33:00;;;;;;;5.10;2.90;;;19.60;99.90;;;;;;5016197;28;20556;-69
2023/09/21 05:35:27;;;;;;;3.10;2.80;;;19.60;99.90;;;;;;5014637;28;20418;-69
2023/09/21 05:37:53;;;;;;;3.60;2.70;;;19.50;99.90;;;;;;5015853;28;20415;-69
2023/09/21 05:40:19;;;;;;;3.33;2.87;;;19.50;99.90;;;;;;5016002;28;20886;-69
2023/09/21 05:42:45;;;;;;;3.53;2.70;;;19.50;99.90;;;;;;5016258;28;20450;-69
2023/09/21 05:45:11;;;;;;;3.23;2.33;;;19.50;99.90;;;;;;5015684;28;20172;-69
2023/09/21 05:47:37;;;;;;;2.80;2.60;;;19.60;99.90;;;;;;5015671;28;20566;-69
2023/09/21 05:50:05;;;;;;;4.63;2.70;;;19.70;99.90;;;;;;5015962;28;20380;-69
2023/09/21 05:52:32;;;;;;;3.37;2.20;;;19.80;99.90;;;;;;5014441;28;20168;-69
2023/09/21 05:54:57;;;;;;;3.10;2.73;;;19.70;99.90;;;;;;5015543;28;20403;-69
2023/09/21 05:57:23;;;;;;;4.00;2.60;;;19.80;99.90;;;;;;5015590;28;20465;-69
2023/09/21 05:59:50;;;;;;;4.83;3.37;;;19.90;99.90;;;;;;5015493;28;20343;-69
2023/09/21 06:02:15;;;;;;;3.40;2.77;;;19.90;99.90;;;;;;5015484;28;20193;-70
2023/09/21 06:04:41;;;;;;;4.33;2.80;;;19.90;99.90;;;;;;5015457;28;20482;-69
2023/09/21 06:07:07;;;;;;;3.83;3.30;;;19.90;99.90;;;;;;5015565;28;20649;-69
2023/09/21 06:09:33;;;;;;;3.60;2.90;;;20.00;99.90;;;;;;5015063;28;20426;-69
2023/09/21 06:11:59;;;;;;;3.10;2.77;;;20.00;99.90;;;;;;5016417;28;20164;-69
2023/09/21 06:14:25;;;;;;;3.33;3.03;;;20.10;99.90;;;;;;5020716;28;20411;-69
2023/09/21 06:16:54;;;;;;;3.33;2.70;;;20.20;99.90;;;;;;5014314;28;20426;-69
2023/09/21 06:19:20;;;;;;;3.10;2.90;;;20.30;99.90;;;;;;5014932;28;20183;-69
2023/09/21 06:21:47;;;;;;;3.50;2.53;;;20.40;99.90;;;;;;5014874;28;20538;-69
2023/09/21 06:24:13;;;;;;;4.93;2.63;;;20.50;99.90;;;;;;5014824;28;20172;-69
2023/09/21 06:26:38;;;;;;;3.27;2.83;;;20.50;99.90;;;;;;5014935;28;20780;-69
2023/09/21 06:29:04;;;;;;;3.07;2.77;;;20.50;99.90;;;;;;5015169;28;20556;-69
2023/09/21 06:31:30;;;;;;;3.37;2.60;;;20.50;99.90;;;;;;5013417;28;20179;-69
2023/09/21 06:33:59;;;;;;;4.87;3.47;;;20.60;99.90;;;;;;5014770;28;20407;-68
2023/09/21 06:36:28;;;;;;;3.20;2.57;;;20.60;99.90;;;;;;5014797;28;20168;-70
2023/09/21 06:38:55;;;;;;;4.50;2.70;;;20.70;99.90;;;;;;5014648;28;20473;-71
2023/09/21 06:41:21;;;;;;;4.40;3.30;;;20.80;99.90;;;;;;5014283;28;20407;-66
2023/09/21 06:43:47;;;;;;;3.90;2.90;;;20.90;99.90;;;;;;5014270;28;20406;-67
2023/09/21 06:46:13;;;;;;;3.37;3.07;;;21.00;99.90;;;;;;5014496;28;20415;-68
2023/09/21 06:48:40;;;;;;;5.03;3.40;;;21.20;99.90;;;;;;5014719;28;20283;-68
2023/09/21 06:51:07;;;;;;;5.87;3.40;;;21.20;99.90;;;;;;5014302;28;20925;-68
2023/09/21 06:53:34;;;;;;;6.03;3.40;;;21.00;99.90;;;;;;5014606;28;20411;-69
2023/09/21 06:56:00;;;;;;;4.40;3.70;;;21.20;99.90;;;;;;5012626;28;20426;-69
2023/09/21 06:58:25;;;;;;;5.23;3.70;;;21.40;99.90;;;;;;5014372;28;20937;-69
2023/09/21 07:00:51;;;;;;;4.53;3.27;;;21.50;99.90;;;;;;5014440;28;20410;-69
2023/09/21 07:03:18;;;;;;;3.90;3.03;;;21.50;99.90;;;;;;5013950;28;20295;-73
2023/09/21 07:05:48;;;;;;;3.60;3.30;;;21.60;99.90;;;;;;5014185;28;20179;-71
2023/09/21 07:08:14;;;;;;;3.67;3.27;;;21.70;99.90;;;;;;5014434;28;20827;-74
2023/09/21 07:10:40;;;;;;;3.10;2.80;;;21.70;99.90;;;;;;5013958;28;20423;-69
2023/09/21 07:13:07;;;;;;;6.73;4.00;;;21.90;99.90;;;;;;5014007;28;20490;-70
2023/09/21 07:15:33;;;;;;;5.90;4.27;;;21.70;99.90;;;;;;5014064;28;20183;-71
2023/09/21 07:17:59;;;;;;;8.23;4.37;;;21.70;99.90;;;;;;5013998;28;20418;-71
2023/09/21 07:20:26;;;;;;;6.83;4.70;;;21.80;99.90;;;;;;5014116;28;20485;-71
2023/09/21 07:22:53;;;;;;;6.23;4.67;;;21.80;99.90;;;;;;5013880;28;20474;-72
2023/09/21 07:25:19;;;;;;;5.70;3.80;;;22.00;99.90;;;;;;5014403;28;20410;-70
2023/09/21 07:27:45;;;;;;;4.90;3.47;;;22.20;99.90;;;;;;5013982;28;20849;-70
2023/09/21 07:30:13;;;;;;;5.37;4.13;;;22.40;99.90;;;;;;5013523;28;20431;-70
2023/09/21 07:32:39;;;;;;;6.90;3.83;;;22.50;99.90;;;;;;5014121;28;20169;-71
2023/09/21 07:35:06;;;;;;;7.33;4.17;;;22.70;99.90;;;;;;5013661;28;20442;-71
2023/09/21 07:37:32;;;;;;;5.50;4.63;;;22.90;99.90;;;;;;5013735;28;20454;-71
2023/09/21 07:40:02;;;;;;;4.30;3.77;;;23.00;99.90;;;;;;5013707;28;20410;-71
2023/09/21 07:42:28;;;;;;;4.30;3.77;;;22.90;99.90;;;;;;5012256;28;20509;-69
2023/09/21 07:44:54;;;;;;;7.67;4.33;;;22.90;99.90;;;;;;5013842;28;20468;-70
2023/09/21 07:47:21;;;;;;;6.63;4.67;;;22.90;99.90;;;;;;5013807;28;20191;-74
2023/09/21 07:49:48;;;;;;;6.00;3.67;;;22.90;99.90;;;;;;5013941;28;20254;-74
2023/09/21 07:52:13;;;;;;;4.77;3.90;;;23.00;99.90;;;;;;5012311;28;20952;-72
2023/09/21 07:54:39;;;;;;;6.30;3.87;;;23.10;99.90;;;;;;5013711;28;20412;-74
2023/09/21 07:57:07;;;;;;;6.27;4.00;;;23.30;99.90;;;;;;5013666;28;20168;-74
2023/09/21 07:59:32;;;;;;;6.33;3.80;;;23.40;99.90;;;;;;5013748;28;20199;-70
2023/09/21 08:02:00;;;;;;;6.70;4.40;;;23.70;99.90;;;;;;5013389;28;20450;-70
2023/09/21 08:04:28;;;;;;;4.93;3.70;;;23.50;99.90;;;;;;5014621;28;20163;-72
2023/09/21 08:06:55;;;;;;;7.57;4.57;;;23.40;99.90;;;;;;5013853;28;20917;-70
2023/09/21 08:09:21;;;;;;;8.30;4.73;;;22.90;99.90;;;;;;5013386;28;20791;-69
2023/09/21 08:11:47;;;;;;;7.87;4.40;;;22.90;99.90;;;;;;5013238;28;20403;-73
2023/09/21 08:14:12;;;;;;;7.93;3.67;;;22.90;99.90;;;;;;5013028;28;20586;-72
2023/09/21 08:16:39;;;;;;;5.93;4.40;;;23.00;99.90;;;;;;5013389;28;20536;-71
2023/09/21 08:19:06;;;;;;;7.83;4.07;;;22.80;99.90;;;;;;5013106;28;20422;-70
2023/09/21 08:21:31;;;;;;;5.63;4.10;;;22.60;99.90;;;;;;5013282;28;20194;-69
2023/09/21 08:23:57;;;;;;;5.10;3.90;;;23.00;99.90;;;;;;5013096;28;20395;-70
2023/09/21 08:26:23;;;;;;;4.70;3.50;;;23.20;99.90;;;;;;5012972;28;20172;-72
2023/09/21 08:28:48;;;;;;;5.07;4.03;;;23.10;99.90;;;;;;5013187;28;20208;-73
2023/09/21 08:31:14;;;;;;;6.37;3.90;;;23.30;99.90;;;;;;5013104;28;20172;-75
2023/09/21 08:33:39;;;;;;;5.20;3.30;;;23.40;99.90;;;;;;5013188;28;20179;-71
2023/09/21 08:36:05;;;;;;;5.40;4.10;;;23.40;99.90;;;;;;5013055;28;20211;-70
2023/09/21 08:38:31;;;;;;;5.63;3.87;;;23.50;99.90;;;;;;5013293;28;20196;-70
2023/09/21 08:40:59;;;;;;;5.07;4.27;;;23.50;99.90;;;;;;5014720;28;20610;-71
2023/09/21 08:43:25;;;;;;;4.27;3.83;;;23.20;99.90;;;;;;5017099;28;20852;-71
2023/09/21 08:45:52;;;;;;;4.63;3.10;;;23.40;99.90;;;;;;5016959;28;20417;-72
2023/09/21 08:48:22;;;;;;;5.57;3.93;;;23.40;99.90;;;;;;5016804;28;20873;-73
2023/09/21 08:50:50;;;;;;;3.53;3.10;;;23.70;99.90;;;;;;5016825;28;20399;-72
2023/09/21 08:53:20;;;;;;;5.10;3.20;;;23.90;99.90;;;;;;5016311;28;20807;-71
2023/09/21 08:55:48;;;;;;;4.00;3.17;;;24.20;99.90;;;;;;5016492;28;20419;-71
2023/09/21 08:58:20;;;;;;;4.30;3.10;;;24.30;99.90;;;;;;5016499;28;20430;-71
2023/09/21 09:00:47;;;;;;;4.87;3.70;;;24.30;99.90;;;;;;5016513;28;20442;-71
2023/09/21 09:03:13;;;;;;;3.80;3.00;;;24.80;99.90;;;;;;5015146;28;20457;-73
2023/09/21 09:05:39;;;;;;;3.27;2.80;;;24.90;99.90;;;;;;5016525;28;20492;-76
2023/09/21 09:08:05;;;;;;;7.77;3.17;;;25.20;99.90;;;;;;5016585;28;20475;-71
2023/09/21 09:10:39;;;;;;;3.43;3.13;;;25.70;99.90;;;;;;5016230;28;20188;-71
2023/09/21 09:13:06;;;;;;;3.37;2.80;;;26.10;99.90;;;;;;5016773;28;20394;-71
2023/09/21 09:15:37;;;;;;;5.03;3.00;;;26.20;99.90;;;;;;5016589;28;20410;-74
2023/09/21 09:18:03;;;;;;;2.60;2.40;;;26.30;99.90;;;;;;5016494;28;20462;-72
2023/09/21 09:20:30;;;;;;;3.37;2.23;;;26.20;99.90;;;;;;5016254;28;20430;-73
2023/09/21 09:22:56;;;;;;;4.10;2.90;;;26.10;99.90;;;;;;5016276;28;20450;-72
2023/09/21 09:25:22;;;;;;;3.77;2.17;;;26.40;99.90;;;;;;5016180;28;20403;-71
2023/09/21 09:27:47;;;;;;;4.50;2.00;;;26.50;99.50;;;;;;5015984;28;20437;-71
2023/09/21 09:30:13;;;;;;;2.97;2.63;;;26.80;99.30;;;;;;5016150;28;20243;-71
2023/09/21 09:32:44;;;;;;;2.47;1.90;;;27.10;98.40;;;;;;5016144;28;20203;-73
2023/09/21 09:35:13;;;;;;;3.40;2.13;;;26.90;98.30;;;;;;5017121;28;20164;-77
2023/09/21 09:37:40;;;;;;;3.30;2.13;;;26.80;98.20;;;;;;5016452;28;20972;-73
2023/09/21 09:40:09;;;;;;;2.90;2.20;;;27.00;97.90;;;;;;5016497;28;20407;-73
2023/09/21 09:42:43;;;;;;;2.80;2.53;;;26.60;98.10;;;;;;5014654;28;20450;-72
2023/09/21 09:45:21;;;;;;;3.23;2.23;;;26.70;98.20;;;;;;5015833;28;20387;-72
2023/09/21 09:47:51;;;;;;;2.93;2.13;;;27.30;97.30;;;;;;5015883;28;20434;-72
2023/09/21 09:50:24;;;;;;;2.27;2.00;;;27.60;96.80;;;;;;5016305;28;20684;-72
2023/09/21 09:52:54;;;;;;;3.50;2.00;;;27.10;97.30;;;;;;5015521;28;20394;-72
2023/09/21 09:55:25;;;;;;;4.40;2.30;;;27.40;97.00;;;;;;5015415;28;20426;-73
2023/09/21 09:57:53;;;;;;;3.57;2.20;;;27.80;96.40;;;;;;5015405;28;20430;-72
2023/09/21 10:00:21;;;;;;;2.93;2.23;;;27.90;95.80;;;;;;5016048;28;20908;-72
2023/09/21 10:02:47;;;;;;;1.90;1.70;;;27.60;96.30;;;;;;5015567;28;20961;-74
2023/09/21 10:05:14;;;;;;;2.60;2.20;;;27.40;96.90;;;;;;5015237;28;20905;-72
2023/09/21 10:07:40;;;;;;;1.90;1.63;;;27.40;96.40;;;;;;5015402;28;20429;-72
2023/09/21 10:10:10;;;;;;;3.40;1.70;;;27.70;96.30;;;;;;5016087;28;20750;-71
2023/09/21 10:12:37;;;;;;;2.83;2.60;;;28.00;95.60;;;;;;5015557;28;20172;-71
2023/09/21 10:15:03;;;;;;;5.23;1.90;;;28.20;94.80;;;;;;5015327;28;20433;-71
2023/09/21 10:17:29;;;;;;;2.37;2.00;;;28.00;93.30;;;;;;5015248;28;20403;-71
2023/09/21 10:20:14;;;;;;;3.30;2.00;;;27.90;93.90;;;;;;5015611;28;20470;-71
2023/09/21 10:22:44;;;;;;;4.33;2.47;;;27.90;94.20;;;;;;5015186;28;20638;-71
2023/09/21 10:25:12;;;;;;;4.17;1.77;;;27.80;94.50;;;;;;5015117;28;20407;-71
2023/09/21 10:27:38;;;;;;;2.40;1.60;;;27.80;94.50;;;;;;5014986;28;20419;-71
2023/09/21 10:30:09;;;;;;;3.80;2.00;;;27.60;93.90;;;;;;5015090;28;20458;-71
2023/09/21 10:32:48;;;;;;;2.90;1.80;;;28.00;94.30;;;;;;5015421;28;20391;-70
2023/09/21 10:35:21;;;;;;;2.77;1.90;;;28.10;93.20;;;;;;5014709;28;20398;-72
2023/09/21 10:37:51;;;;;;;1.63;1.53;;;28.00;92.50;;;;;;5013467;28;20431;-71
2023/09/21 10:40:22;;;;;;;2.90;1.90;;;28.20;93.10;;;;;;5015073;28;20434;-71
2023/09/21 10:42:47;;;;;;;2.57;1.90;;;28.40;92.70;;;;;;5014748;28;20434;-70
2023/09/21 10:45:13;;;;;;;2.70;1.93;;;28.60;91.90;;;;;;5014695;28;20413;-71
2023/09/21 10:47:51;;;;;;;4.47;2.03;;;28.70;91.50;;;;;;5015332;28;20200;-69
2023/09/21 10:50:20;;;;;;;2.10;1.80;;;29.30;91.70;;;;;;5015829;28;20749;-72
2023/09/21 10:52:48;;;;;;;3.10;2.70;;;29.10;90.90;;;;;;5014772;28;20494;-72
2023/09/21 10:55:16;;;;;;;2.00;1.40;;;29.40;91.50;;;;;;5014877;28;20426;-72
2023/09/21 10:57:43;;;;;;;3.40;1.77;;;29.30;90.80;;;;;;5014839;28;21198;-72
2023/09/21 11:00:16;;;;;;;2.10;1.70;;;29.70;90.10;;;;;;5013909;28;20411;-72
2023/09/21 11:02:44;;;;;;;2.00;1.80;;;29.50;89.30;;;;;;5016036;28;20804;-74
2023/09/21 11:05:10;;;;;;;4.60;1.83;;;29.60;90.30;;;;;;5016204;28;20427;-73
2023/09/21 11:07:37;;;;;;;2.47;2.10;;;29.80;90.10;;;;;;5016213;28;20427;-71
2023/09/21 11:10:06;;;;;;;3.40;1.87;;;29.30;89.80;;;;;;5017562;28;20405;-70
2023/09/21 11:12:32;;;;;;;2.40;1.90;;;29.20;90.00;;;;;;5016405;28;20409;-71
2023/09/21 11:14:59;;;;;;;2.23;1.77;;;29.10;90.00;;;;;;5015837;28;20407;-71
2023/09/21 11:17:27;;;;;;;2.50;1.80;;;29.20;90.60;;;;;;5015037;28;20167;-70
2023/09/21 11:19:53;;;;;;;3.07;2.00;;;29.80;90.20;;;;;;5015969;28;20411;-71
2023/09/21 11:22:19;;;;;;;2.47;2.27;;;30.30;88.70;;;;;;5015499;28;20469;-70
2023/09/21 11:24:46;;;;;;;2.60;2.17;;;30.20;89.00;;;;;;5015429;28;20403;-73
2023/09/21 11:27:14;;;;;;;2.97;2.20;;;30.10;87.30;;;;;;5013651;28;20446;-71
2023/09/21 11:29:42;;;;;;;2.50;1.90;;;29.90;88.00;;;;;;5015430;28;20403;-71
2023/09/21 11:32:12;;;;;;;2.10;1.50;;;29.80;87.40;;;;;;5014399;28;20480;-71
2023/09/21 11:34:39;;;;;;;3.07;1.93;;;29.80;87.30;;;;;;5014543;28;20761;-70
2023/09/21 11:37:09;;;;;;;2.10;1.53;;;29.70;88.10;;;;;;5014262;28;20486;-70
2023/09/21 11:39:48;;;;;;;2.70;1.70;;;29.80;87.50;;;;;;5013517;28;20423;-71
2023/09/21 11:42:17;;;;;;;2.10;1.90;;;29.90;89.20;;;;;;5014786;28;20442;-70
2023/09/21 11:44:43;;;;;;;3.30;2.00;;;29.50;88.80;;;;;;5014681;28;20845;-73
2023/09/21 11:47:09;;;;;;;3.27;1.97;;;29.60;87.70;;;;;;5015132;28;20411;-71
2023/09/21 11:49:44;;;;;;;2.90;2.00;;;29.80;87.90;;;;;;5013360;28;20262;-72
2023/09/21 11:52:11;;;;;;;4.70;2.27;;;29.80;88.80;;;;;;5013842;28;20898;-73
2023/09/21 11:54:41;;;;;;;3.70;3.37;;;29.80;88.40;;;;;;5014601;28;20419;-73
2023/09/21 11:57:09;;;;;;;3.20;2.03;;;29.90;90.00;;;;;;5014383;28;20465;-73
2023/09/21 11:59:45;;;;;;;2.33;1.77;;;30.00;87.30;;;;;;5014173;28;20549;-74
2023/09/21 12:02:16;;;;;;;2.57;2.00;;;29.90;85.90;;;;;;5014180;28;20442;-71
2023/09/21 12:04:43;;;;;;;2.60;1.90;;;29.80;85.40;;;;;;5012412;28;20415;-73
2023/09/21 12:07:09;;;;;;;2.70;2.00;;;30.00;86.20;;;;;;5013870;28;20766;-72
2023/09/21 12:09:40;;;;;;;2.83;1.90;;;30.10;87.40;;;;;;5013743;28;20844;-72
2023/09/21 12:12:12;;;;;;;2.13;1.80;;;30.60;85.90;;;;;;5013719;28;20482;-74
2023/09/21 12:14:40;;;;;;;2.60;2.00;;;31.30;85.00;;;;;;5014142;28;20414;-74
2023/09/21 12:17:11;;;;;;;3.03;2.30;;;32.30;81.60;;;;;;5017731;28;20415;-73
2023/09/21 12:19:37;;;;;;;4.83;2.00;;;33.10;79.30;;;;;;5018695;28;20442;-72
2023/09/21 12:22:05;;;;;;;2.73;1.70;;;33.50;76.60;;;;;;5017528;28;20508;-71
2023/09/21 12:24:34;;;;;;;2.53;1.90;;;33.10;75.70;;;;;;5018063;28;20549;-70
2023/09/21 12:27:05;;;;;;;1.70;1.60;;;32.80;76.10;;;;;;5017322;28;20928;-70
2023/09/21 12:29:31;;;;;;;2.03;1.70;;;32.80;76.30;;;;;;5017405;28;20573;-69
2023/09/21 12:31:58;;;;;;;3.07;1.60;;;32.80;75.50;;;;;;5017150;28;20435;-70
2023/09/21 12:34:24;;;;;;;2.00;1.80;;;33.20;74.20;;;;;;5015682;28;20266;-70
2023/09/21 12:36:50;;;;;;;1.93;1.50;;;34.40;72.80;;;;;;5017188;28;20925;-70
2023/09/21 12:39:16;;;;;;;1.70;1.53;;;35.80;68.90;;;;;;5017429;28;20203;-71
2023/09/21 12:41:43;;;;;;;2.37;1.50;;;34.60;67.70;;;;;;5018124;28;20176;-71
2023/09/21 12:44:10;;;;;;;2.60;1.87;;;33.90;69.50;;;;;;5017820;28;20967;-70
2023/09/21 12:46:37;;;;;;;5.33;1.70;;;33.50;69.40;;;;;;5019576;28;20407;-70
2023/09/21 12:49:06;;;;;;;2.10;1.70;;;33.90;70.20;;;;;;5018482;28;20454;-73
2023/09/21 12:51:33;;;;;;;2.13;1.60;;;34.60;69.20;;;;;;5017466;28;20901;-71